Time;durP1;ratioP1;P1;durP2;ratioP2;P2;SDS_P1;SDS_P2;PMS_P1;PMS_P2;Temp;Humidity;BMP_temperature;BMP_pressure;BME280_temperature;BME280_humidity;BME280_pressure;Samples;Min_cycle;Max_cycle;Signal;HPM_P1;HPM_P2
2023/01/25 00:00:44;;;;;;;7.27;6.07;;;4.10;99.90;;;;;;5002732;28;20261;-66
2023/01/25 00:03:17;;;;;;;9.30;6.60;;;4.10;99.90;;;;;;5013771;28;20230;-67
2023/01/25 00:05:44;;;;;;;8.10;6.13;;;4.10;99.90;;;;;;5014877;28;20159;-66
2023/01/25 00:08:10;;;;;;;7.00;5.80;;;4.10;99.90;;;;;;4999485;28;20630;-61
2023/01/25 00:10:36;;;;;;;8.57;6.13;;;4.10;99.90;;;;;;4995311;28;20198;-66
2023/01/25 00:13:01;;;;;;;9.00;7.10;;;4.10;99.90;;;;;;5003977;28;20174;-63
2023/01/25 00:15:27;;;;;;;8.60;7.00;;;4.10;99.90;;;;;;5003007;28;20218;-66
2023/01/25 00:17:52;;;;;;;8.30;6.77;;;4.10;99.90;;;;;;5009650;28;20178;-67
2023/01/25 00:20:20;;;;;;;8.90;6.90;;;4.10;99.90;;;;;;5014739;28;20174;-66
2023/01/25 00:22:46;;;;;;;8.53;6.93;;;4.10;99.90;;;;;;5014485;28;20206;-66
2023/01/25 00:25:13;;;;;;;8.23;6.63;;;4.10;99.90;;;;;;5014515;28;20198;-66
2023/01/25 00:27:41;;;;;;;8.30;6.17;;;4.10;99.90;;;;;;5014568;28;20175;-65
2023/01/25 00:30:10;;;;;;;7.27;6.10;;;4.10;99.90;;;;;;5014504;28;20171;-66
2023/01/25 00:32:57;;;;;;;7.80;6.17;;;4.10;99.90;;;;;;5014477;28;20178;-62
2023/01/25 00:35:28;;;;;;;8.60;6.13;;;4.10;99.90;;;;;;5014082;28;20261;-66
2023/01/25 00:37:54;;;;;;;7.97;6.47;;;4.20;99.90;;;;;;5012296;28;20188;-64
2023/01/25 00:40:21;;;;;;;7.57;5.80;;;4.20;99.90;;;;;;5002458;28;20170;-66
2023/01/25 00:42:47;;;;;;;8.33;6.57;;;4.20;99.90;;;;;;5013201;28;20214;-66
2023/01/25 00:45:15;;;;;;;7.37;6.17;;;4.20;99.90;;;;;;5011131;28;20250;-66
2023/01/25 00:47:41;;;;;;;9.33;7.37;;;4.20;99.90;;;;;;5000378;28;20212;-66
2023/01/25 00:50:07;;;;;;;9.43;7.43;;;4.20;99.90;;;;;;5005054;28;20237;-66
2023/01/25 00:52:33;;;;;;;8.63;6.80;;;4.20;99.90;;;;;;5012878;28;20194;-63
2023/01/25 00:55:00;;;;;;;8.13;6.70;;;4.20;99.90;;;;;;5012428;28;20182;-66
2023/01/25 00:57:26;;;;;;;8.53;6.97;;;4.10;99.90;;;;;;5010108;28;20183;-64
2023/01/25 00:59:52;;;;;;;9.50;7.20;;;4.20;99.90;;;;;;5005571;28;20245;-65
2023/01/25 01:02:17;;;;;;;9.13;7.07;;;4.10;99.90;;;;;;5011789;28;20206;-66
2023/01/25 01:04:43;;;;;;;8.53;7.03;;;4.10;99.90;;;;;;5002805;28;20178;-66
2023/01/25 01:07:11;;;;;;;8.50;6.77;;;4.10;99.90;;;;;;5012193;28;20187;-66
2023/01/25 01:09:39;;;;;;;9.13;7.73;;;4.10;99.90;;;;;;5006943;28;20194;-66
2023/01/25 01:12:05;;;;;;;9.50;7.07;;;4.10;99.90;;;;;;5031541;28;20209;-67
2023/01/25 01:14:33;;;;;;;9.33;7.77;;;4.10;99.90;;;;;;4994108;28;20214;-66
2023/01/25 01:17:01;;;;;;;9.43;7.47;;;4.10;99.90;;;;;;5006134;28;20202;-66
2023/01/25 01:19:26;;;;;;;8.30;6.43;;;4.10;99.90;;;;;;5013934;28;20231;-66
2023/01/25 01:21:52;;;;;;;7.50;6.30;;;4.10;99.90;;;;;;5010540;28;20237;-65
2023/01/25 01:24:18;;;;;;;8.67;6.70;;;4.10;99.90;;;;;;5012565;28;20170;-66
2023/01/25 01:26:44;;;;;;;8.73;6.33;;;4.10;99.90;;;;;;5020118;28;20170;-66
2023/01/25 01:29:12;;;;;;;7.73;6.33;;;4.00;99.90;;;;;;5015238;28;20310;-66
2023/01/25 01:31:40;;;;;;;9.07;6.83;;;4.00;99.90;;;;;;5013796;28;20182;-66
2023/01/25 01:34:10;;;;;;;8.80;6.67;;;4.00;99.90;;;;;;5013787;28;20171;-66
2023/01/25 01:36:36;;;;;;;8.97;7.13;;;4.00;99.90;;;;;;5005199;28;20182;-66
2023/01/25 01:39:04;;;;;;;9.70;6.63;;;4.00;99.90;;;;;;5010267;28;20164;-65
2023/01/25 01:41:34;;;;;;;9.33;6.83;;;4.00;99.90;;;;;;5007307;28;20189;-62
2023/01/25 01:44:02;;;;;;;8.37;6.83;;;3.90;99.90;;;;;;5003271;28;20223;-67
2023/01/25 01:46:36;;;;;;;8.37;6.63;;;3.90;99.90;;;;;;4995889;28;20172;-66
2023/01/25 01:49:21;;;;;;;8.23;6.20;;;3.90;99.90;;;;;;5016884;28;20277;-66
2023/01/25 01:52:17;;;;;;;7.43;5.77;;;4.00;99.90;;;;;;5014379;28;20190;-65
2023/01/25 01:54:56;;;;;;;9.60;7.50;;;3.90;99.90;;;;;;5010209;28;20219;-68
2023/01/25 01:57:36;;;;;;;9.80;7.90;;;3.80;99.90;;;;;;5007115;28;20199;-65
2023/01/25 02:00:13;;;;;;;9.93;7.40;;;3.80;99.90;;;;;;5000369;28;20244;-64
2023/01/25 02:02:39;;;;;;;8.87;7.37;;;3.80;99.90;;;;;;5014378;28;20198;-65
2023/01/25 02:05:16;;;;;;;9.57;7.50;;;3.80;99.90;;;;;;5013009;28;20175;-64
2023/01/25 02:07:47;;;;;;;9.97;7.30;;;3.80;99.90;;;;;;5014548;28;20171;-62
2023/01/25 02:10:15;;;;;;;8.40;6.53;;;3.80;99.90;;;;;;5016731;28;20277;-64
2023/01/25 02:12:44;;;;;;;9.03;6.80;;;3.80;99.90;;;;;;5016376;28;20206;-64
2023/01/25 02:15:11;;;;;;;8.67;6.27;;;3.70;99.90;;;;;;5016365;28;20195;-65
2023/01/25 02:17:40;;;;;;;7.37;5.73;;;3.80;99.90;;;;;;5013647;28;20201;-65
2023/01/25 02:20:15;;;;;;;8.20;5.93;;;3.80;99.90;;;;;;4997347;28;20180;-65
2023/01/25 02:22:57;;;;;;;7.47;6.00;;;3.80;99.90;;;;;;5013194;28;20205;-61
2023/01/25 02:25:26;;;;;;;7.90;5.83;;;3.80;99.90;;;;;;5015486;28;20186;-65
2023/01/25 02:28:06;;;;;;;8.90;6.83;;;3.80;99.90;;;;;;5011518;28;20181;-65
2023/01/25 02:30:33;;;;;;;8.03;6.23;;;3.80;99.90;;;;;;5006995;28;20210;-65
2023/01/25 02:33:01;;;;;;;7.97;6.10;;;3.80;99.90;;;;;;5015941;28;20179;-64
2023/01/25 02:35:40;;;;;;;7.87;6.47;;;3.70;99.90;;;;;;5015775;28;20273;-69
2023/01/25 02:38:08;;;;;;;6.90;5.57;;;3.80;99.90;;;;;;5015981;28;20265;-66
2023/01/25 02:40:44;;;;;;;7.60;5.97;;;3.80;99.90;;;;;;4997981;28;20195;-67
2023/01/25 02:43:15;;;;;;;7.90;6.40;;;3.80;99.90;;;;;;4996689;28;20214;-66
2023/01/25 02:45:50;;;;;;;7.40;6.00;;;3.80;99.90;;;;;;5010260;28;20171;-61
2023/01/25 02:48:18;;;;;;;7.90;6.17;;;3.80;99.90;;;;;;5022199;28;20182;-64
2023/01/25 02:50:44;;;;;;;7.47;6.00;;;3.80;99.90;;;;;;5016062;28;20294;-64
2023/01/25 02:53:10;;;;;;;7.67;6.40;;;3.80;99.90;;;;;;5016104;28;20206;-64
2023/01/25 02:55:35;;;;;;;7.73;6.10;;;3.90;99.90;;;;;;5013613;28;20183;-63
2023/01/25 02:58:01;;;;;;;7.80;6.33;;;3.80;99.90;;;;;;5012521;28;20178;-62
2023/01/25 03:00:29;;;;;;;8.00;6.13;;;3.90;99.90;;;;;;5015830;28;20186;-66
2023/01/25 03:02:55;;;;;;;7.80;6.30;;;3.80;99.90;;;;;;4996753;28;20198;-65
2023/01/25 03:05:23;;;;;;;8.57;6.43;;;3.90;99.90;;;;;;5011971;28;20190;-65
2023/01/25 03:07:50;;;;;;;7.03;5.93;;;3.90;99.90;;;;;;5013503;28;20206;-65
2023/01/25 03:10:16;;;;;;;8.37;6.30;;;3.70;99.90;;;;;;5006648;28;20226;-65
2023/01/25 03:12:42;;;;;;;8.80;6.80;;;3.70;99.90;;;;;;5003241;28;20237;-65
2023/01/25 03:15:10;;;;;;;7.97;6.40;;;3.70;99.90;;;;;;5010238;28;20193;-66
2023/01/25 03:17:36;;;;;;;8.23;6.80;;;3.70;99.90;;;;;;5013140;28;20206;-65
2023/01/25 03:20:01;;;;;;;8.30;6.90;;;3.70;99.90;;;;;;5015363;28;20287;-66
2023/01/25 03:22:27;;;;;;;8.87;6.93;;;3.70;99.90;;;;;;5026542;28;20194;-66
2023/01/25 03:24:52;;;;;;;8.23;6.80;;;3.70;99.90;;;;;;5013463;28;20210;-66
2023/01/25 03:27:18;;;;;;;8.90;7.17;;;3.70;99.90;;;;;;5014861;28;20209;-65
2023/01/25 03:29:46;;;;;;;8.43;7.20;;;3.70;99.90;;;;;;5020848;28;20208;-65
2023/01/25 03:32:12;;;;;;;9.03;6.80;;;3.70;99.90;;;;;;5026607;28;20186;-66
2023/01/25 03:34:37;;;;;;;9.23;6.80;;;3.70;99.90;;;;;;5005085;28;20275;-66
2023/01/25 03:37:08;;;;;;;7.80;6.70;;;3.70;99.90;;;;;;5007410;28;20202;-65
2023/01/25 03:39:33;;;;;;;8.10;6.80;;;3.70;99.90;;;;;;5013638;28;20185;-65
2023/01/25 03:41:59;;;;;;;9.17;7.13;;;3.70;99.90;;;;;;5013371;28;20202;-65
2023/01/25 03:44:25;;;;;;;7.77;6.37;;;3.70;99.90;;;;;;4999642;28;20227;-65
2023/01/25 03:46:50;;;;;;;7.13;5.70;;;3.70;99.90;;;;;;4995701;28;20175;-65
2023/01/25 03:49:17;;;;;;;8.13;6.50;;;3.70;99.90;;;;;;5007812;28;20194;-65
2023/01/25 03:51:47;;;;;;;7.50;6.17;;;3.70;99.90;;;;;;5003775;28;20202;-65
2023/01/25 03:54:13;;;;;;;7.93;6.20;;;3.70;99.90;;;;;;5014314;28;20178;-65
2023/01/25 03:56:38;;;;;;;8.60;6.50;;;3.70;99.90;;;;;;5010470;28;20199;-65
2023/01/25 03:59:04;;;;;;;7.77;6.47;;;3.70;99.90;;;;;;4995146;28;20175;-63
2023/01/25 04:01:30;;;;;;;8.27;6.63;;;3.70;99.90;;;;;;4996547;28;20199;-62
2023/01/25 04:03:58;;;;;;;7.17;6.10;;;3.70;99.90;;;;;;5016596;28;20198;-62
2023/01/25 04:06:24;;;;;;;8.43;6.43;;;3.70;99.90;;;;;;5016615;28;20174;-63
2023/01/25 04:08:49;;;;;;;7.50;6.37;;;3.70;99.90;;;;;;5004144;28;20206;-63
2023/01/25 04:11:15;;;;;;;8.10;6.70;;;3.70;99.90;;;;;;4995925;28;20179;-63
2023/01/25 04:13:41;;;;;;;7.60;6.27;;;3.70;99.90;;;;;;5008903;28;20186;-63
2023/01/25 04:16:08;;;;;;;7.90;6.43;;;3.70;99.90;;;;;;5014365;28;20195;-65
2023/01/25 04:18:39;;;;;;;9.10;6.20;;;3.70;99.90;;;;;;5013988;28;20206;-65
2023/01/25 04:21:05;;;;;;;8.60;6.90;;;4.00;99.90;;;;;;5014885;28;20216;-66
2023/01/25 04:23:33;;;;;;;7.70;6.17;;;3.70;99.90;;;;;;5032484;28;20376;-65
2023/01/25 04:26:04;;;;;;;7.97;6.40;;;3.70;99.90;;;;;;4997570;28;20181;-65
2023/01/25 04:28:31;;;;;;;7.57;5.80;;;3.70;99.90;;;;;;5011064;28;20179;-65
2023/01/25 04:30:57;;;;;;;7.23;5.93;;;3.60;99.90;;;;;;5013327;28;20213;-65
2023/01/25 04:33:23;;;;;;;7.23;6.00;;;3.60;99.90;;;;;;5014362;28;20178;-66
2023/01/25 04:35:51;;;;;;;8.27;6.57;;;3.60;99.90;;;;;;5009464;28;20171;-65
2023/01/25 04:38:19;;;;;;;7.80;6.10;;;3.60;99.90;;;;;;5014027;28;20182;-65
2023/01/25 04:40:44;;;;;;;7.37;5.83;;;3.60;99.90;;;;;;4999228;28;20385;-65
2023/01/25 04:43:12;;;;;;;8.03;6.57;;;3.60;99.90;;;;;;5014224;28;20214;-65
2023/01/25 04:45:38;;;;;;;9.17;6.90;;;3.60;99.90;;;;;;5011415;28;20190;-65
2023/01/25 04:48:09;;;;;;;10.20;6.93;;;3.70;99.90;;;;;;5030564;28;20169;-65
2023/01/25 04:50:41;;;;;;;8.03;6.53;;;3.70;99.90;;;;;;5011050;28;20195;-65
2023/01/25 04:53:11;;;;;;;7.57;6.73;;;3.70;99.90;;;;;;4995214;28;20501;-64
2023/01/25 04:55:40;;;;;;;8.13;6.57;;;3.70;99.90;;;;;;5002084;28;20265;-65
2023/01/25 04:58:08;;;;;;;8.03;6.60;;;3.70;99.90;;;;;;5012970;28;20198;-65
2023/01/25 05:00:33;;;;;;;7.83;6.20;;;3.70;99.90;;;;;;4994589;28;20174;-65
2023/01/25 05:02:59;;;;;;;8.30;6.73;;;3.70;99.90;;;;;;5014507;28;20198;-65
2023/01/25 05:05:27;;;;;;;7.93;6.80;;;3.70;99.90;;;;;;5010683;28;20214;-65
2023/01/25 05:07:52;;;;;;;8.43;6.63;;;3.70;99.90;;;;;;5009084;28;20185;-66
2023/01/25 05:10:18;;;;;;;7.37;5.97;;;3.80;99.90;;;;;;4998811;28;20289;-65
2023/01/25 05:12:48;;;;;;;8.90;6.60;;;3.70;99.90;;;;;;5005752;28;20193;-66
2023/01/25 05:15:16;;;;;;;8.47;6.63;;;3.70;99.90;;;;;;5013690;28;20179;-65
2023/01/25 05:17:46;;;;;;;9.17;7.13;;;3.70;99.90;;;;;;5014283;28;20203;-65
2023/01/25 05:20:14;;;;;;;18.73;14.37;;;3.80;99.90;;;;;;5008505;28;20191;-65
2023/01/25 05:22:40;;;;;;;10.80;8.63;;;3.70;99.90;;;;;;5014570;28;20203;-68
2023/01/25 05:26:59;;;;;;;11.73;8.97;;;3.70;99.90;;;;;;5014797;28;20269;-65
2023/01/25 05:27:51;;;;;;;10.07;7.93;;;3.70;99.90;;;;;;5000583;28;20274;-65
2023/01/25 05:30:17;;;;;;;8.50;6.90;;;3.70;99.90;;;;;;4998485;28;20215;-66
2023/01/25 05:32:43;;;;;;;9.47;6.90;;;3.70;99.90;;;;;;5015971;28;20182;-66
2023/01/25 05:35:10;;;;;;;9.63;7.37;;;3.80;99.90;;;;;;5003034;28;20218;-66
2023/01/25 05:37:36;;;;;;;8.27;6.67;;;3.80;99.90;;;;;;5017080;28;20206;-66
2023/01/25 05:40:05;;;;;;;9.03;7.03;;;3.80;99.90;;;;;;5037622;28;20186;-65
2023/01/25 05:42:31;;;;;;;8.30;7.07;;;3.70;99.90;;;;;;5032550;28;20194;-65
2023/01/25 05:44:56;;;;;;;8.57;6.57;;;3.70;99.90;;;;;;5037336;28;20198;-67
2023/01/25 05:47:22;;;;;;;8.07;6.50;;;3.70;99.90;;;;;;5016907;28;20167;-71
2023/01/25 05:49:48;;;;;;;7.87;6.20;;;3.70;99.90;;;;;;5014768;28;20202;-70
2023/01/25 05:52:17;;;;;;;6.87;5.87;;;3.60;99.90;;;;;;5003282;28;20256;-69
2023/01/25 05:54:42;;;;;;;8.43;6.53;;;3.70;99.90;;;;;;5014820;28;20183;-71
2023/01/25 05:57:08;;;;;;;8.17;6.70;;;3.70;99.90;;;;;;5017597;28;20236;-66
2023/01/25 05:59:36;;;;;;;9.20;7.10;;;3.70;99.90;;;;;;5017415;28;20231;-65
2023/01/25 06:02:01;;;;;;;7.87;6.27;;;3.70;99.90;;;;;;5017345;28;20198;-66
2023/01/25 06:04:27;;;;;;;7.63;6.37;;;3.70;99.90;;;;;;5017474;28;20201;-66
2023/01/25 06:06:52;;;;;;;8.03;6.63;;;3.60;99.90;;;;;;5016502;28;20240;-66
2023/01/25 06:09:21;;;;;;;8.37;6.73;;;3.60;99.90;;;;;;5016735;28;20206;-66
2023/01/25 06:11:49;;;;;;;6.90;5.83;;;3.60;99.90;;;;;;5016737;28;20266;-66
2023/01/25 06:14:14;;;;;;;8.97;6.63;;;3.60;99.90;;;;;;5016483;28;20183;-65
2023/01/25 06:16:42;;;;;;;7.77;6.47;;;3.60;99.90;;;;;;5009812;28;20249;-65
2023/01/25 06:19:14;;;;;;;8.13;6.27;;;3.60;99.90;;;;;;5016330;28;20349;-63
2023/01/25 06:21:40;;;;;;;7.90;6.47;;;3.60;99.90;;;;;;5016409;28;20198;-64
2023/01/25 06:24:06;;;;;;;7.93;6.57;;;3.50;99.90;;;;;;5003688;28;20190;-64
2023/01/25 06:26:31;;;;;;;7.00;6.10;;;3.50;99.90;;;;;;5016421;28;20207;-64
2023/01/25 06:28:57;;;;;;;8.27;6.43;;;3.50;99.90;;;;;;5004063;28;20188;-64
2023/01/25 06:31:25;;;;;;;7.27;6.13;;;3.50;99.90;;;;;;4996905;28;20179;-64
2023/01/25 06:33:51;;;;;;;6.70;5.80;;;3.40;99.90;;;;;;4996001;28;20317;-64
2023/01/25 06:36:19;;;;;;;6.77;5.53;;;3.40;99.90;;;;;;4998480;28;20191;-64
2023/01/25 06:38:49;;;;;;;7.30;5.70;;;3.40;99.90;;;;;;5015763;28;20252;-64
2023/01/25 06:41:15;;;;;;;7.13;5.77;;;3.40;99.90;;;;;;5013897;28;20183;-66
2023/01/25 06:43:43;;;;;;;8.60;6.33;;;3.40;99.90;;;;;;5015865;28;20210;-65
2023/01/25 06:46:15;;;;;;;7.73;5.90;;;3.40;99.90;;;;;;5029478;28;20189;-64
2023/01/25 06:48:41;;;;;;;8.13;6.30;;;3.40;99.90;;;;;;5026648;28;20167;-64
2023/01/25 06:51:10;;;;;;;6.83;5.57;;;3.30;99.90;;;;;;5015763;28;20229;-64
2023/01/25 06:53:38;;;;;;;6.93;5.67;;;3.30;99.90;;;;;;5015870;28;20209;-65
2023/01/25 06:56:08;;;;;;;6.97;5.53;;;3.30;99.90;;;;;;5012047;28;20203;-65
2023/01/25 06:58:34;;;;;;;7.30;5.63;;;3.40;99.90;;;;;;5015620;28;20231;-65
2023/01/25 07:01:07;;;;;;;8.07;6.37;;;3.50;99.90;;;;;;4999248;28;20203;-64
2023/01/25 07:03:33;;;;;;;6.90;5.77;;;3.40;99.90;;;;;;5012843;28;20325;-65
2023/01/25 07:06:05;;;;;;;7.00;5.70;;;3.50;99.90;;;;;;5015455;28;20178;-65
2023/01/25 07:08:32;;;;;;;8.03;5.90;;;3.40;99.90;;;;;;5010094;28;20198;-64
2023/01/25 07:11:02;;;;;;;7.20;5.60;;;3.40;99.90;;;;;;5003200;28;20292;-65
2023/01/25 07:13:32;;;;;;;7.30;5.93;;;3.50;99.90;;;;;;5015301;28;20207;-65
2023/01/25 07:16:02;;;;;;;7.07;5.93;;;3.50;99.90;;;;;;5002002;28;20205;-65
2023/01/25 07:18:32;;;;;;;7.23;5.90;;;3.50;99.90;;;;;;5003067;28;20214;-64
2023/01/25 07:21:08;;;;;;;7.27;5.87;;;3.50;99.90;;;;;;5010129;28;20269;-65
2023/01/25 07:23:36;;;;;;;7.27;5.90;;;3.50;99.90;;;;;;5005795;28;20297;-65
2023/01/25 07:26:02;;;;;;;7.33;6.13;;;3.50;99.90;;;;;;5011646;28;20237;-64
2023/01/25 07:28:28;;;;;;;7.50;6.20;;;3.50;99.90;;;;;;5014757;28;20171;-65
2023/01/25 07:30:53;;;;;;;7.63;6.07;;;3.50;99.90;;;;;;5012369;28;20203;-65
2023/01/25 07:33:19;;;;;;;7.57;6.03;;;3.40;99.90;;;;;;4995422;28;20175;-65
2023/01/25 07:35:49;;;;;;;7.87;6.30;;;3.40;99.90;;;;;;4995425;28;20234;-65
2023/01/25 07:38:17;;;;;;;9.00;6.37;;;3.40;99.90;;;;;;5011442;28;20419;-65
2023/01/25 07:40:43;;;;;;;8.70;6.57;;;3.40;99.90;;;;;;5014975;28;20170;-65
2023/01/25 07:43:08;;;;;;;8.90;7.27;;;3.40;99.90;;;;;;5014448;28;20282;-65
2023/01/25 07:45:34;;;;;;;9.10;7.63;;;3.30;99.90;;;;;;4996233;28;20179;-65
2023/01/25 07:48:09;;;;;;;9.90;7.53;;;3.30;99.90;;;;;;4997164;28;20202;-65
2023/01/25 07:50:40;;;;;;;7.70;6.27;;;3.30;99.90;;;;;;5014892;28;20232;-64
2023/01/25 07:53:06;;;;;;;9.73;8.07;;;3.30;99.90;;;;;;5009477;28;20207;-65
2023/01/25 07:55:32;;;;;;;8.80;7.20;;;3.30;99.90;;;;;;5001372;28;20376;-64
2023/01/25 07:58:00;;;;;;;8.60;7.10;;;3.40;99.90;;;;;;5002842;28;20257;-65
2023/01/25 08:00:27;;;;;;;9.40;7.57;;;3.30;99.90;;;;;;5014608;28;20198;-65
2023/01/25 08:02:54;;;;;;;8.97;7.30;;;3.30;99.90;;;;;;4997192;28;20235;-65
2023/01/25 08:05:24;;;;;;;9.57;7.40;;;3.40;99.90;;;;;;5006194;28;20195;-65
2023/01/25 08:07:50;;;;;;;9.40;7.27;;;3.40;99.90;;;;;;4996317;28;20186;-65
2023/01/25 08:10:15;;;;;;;11.20;9.03;;;3.40;99.90;;;;;;4995763;28;20179;-65
2023/01/25 08:12:46;;;;;;;18.57;14.07;;;3.40;99.90;;;;;;4997528;28;20252;-65
2023/01/25 08:15:13;;;;;;;12.47;9.43;;;3.50;99.90;;;;;;5014625;28;20232;-64
2023/01/25 08:17:38;;;;;;;10.33;8.40;;;3.50;99.90;;;;;;4999501;28;20207;-65
2023/01/25 08:20:07;;;;;;;10.30;7.97;;;3.50;99.90;;;;;;5000056;28;20178;-64
2023/01/25 08:22:33;;;;;;;10.07;7.57;;;3.40;99.90;;;;;;5014895;28;20206;-65
2023/01/25 08:25:00;;;;;;;11.60;8.33;;;3.40;99.90;;;;;;5014210;28;20170;-66
2023/01/25 08:27:27;;;;;;;10.57;8.00;;;3.40;99.90;;;;;;5006535;28;20175;-65
2023/01/25 08:29:53;;;;;;;9.23;7.43;;;3.40;99.90;;;;;;4994515;28;20179;-65
2023/01/25 08:32:19;;;;;;;10.23;8.03;;;3.40;99.90;;;;;;4994655;28;20175;-65
2023/01/25 08:34:45;;;;;;;9.57;7.60;;;3.40;99.90;;;;;;5007856;28;20190;-65
2023/01/25 08:37:11;;;;;;;9.50;7.63;;;3.40;99.90;;;;;;5001097;28;20240;-64
2023/01/25 08:39:39;;;;;;;10.03;7.83;;;3.40;99.90;;;;;;5014287;28;20171;-65
2023/01/25 08:42:05;;;;;;;12.80;9.23;;;3.40;99.90;;;;;;5007906;28;20203;-65
2023/01/25 08:44:31;;;;;;;11.97;9.23;;;3.40;99.90;;;;;;5002765;28;20170;-64
2023/01/25 08:46:56;;;;;;;10.67;8.83;;;3.40;99.90;;;;;;5014392;28;20173;-65
2023/01/25 08:49:22;;;;;;;10.50;8.37;;;3.40;99.90;;;;;;5013723;28;20229;-65
2023/01/25 08:51:49;;;;;;;11.80;9.77;;;3.50;99.90;;;;;;5014009;28;20197;-64
2023/01/25 08:54:14;;;;;;;10.77;8.83;;;3.40;99.90;;;;;;5013938;28;20178;-65
2023/01/25 08:56:40;;;;;;;11.80;9.33;;;3.50;99.90;;;;;;4995821;28;20203;-65
2023/01/25 08:59:09;;;;;;;11.87;9.37;;;3.50;99.90;;;;;;5011726;28;20174;-65
2023/01/25 09:01:35;;;;;;;10.87;8.70;;;3.50;99.90;;;;;;5013870;28;20181;-65
2023/01/25 09:04:03;;;;;;;12.27;9.27;;;3.50;99.90;;;;;;5000287;28;20207;-65
2023/01/25 09:06:28;;;;;;;10.67;8.43;;;3.50;99.90;;;;;;5001132;28;20266;-65
2023/01/25 09:08:58;;;;;;;10.50;8.40;;;3.50;99.90;;;;;;4995154;28;20191;-65
2023/01/25 09:11:23;;;;;;;13.57;8.77;;;3.50;99.90;;;;;;5007084;28;20179;-65
2023/01/25 09:13:49;;;;;;;11.93;8.87;;;3.50;99.90;;;;;;4994166;28;20190;-65
2023/01/25 09:16:19;;;;;;;12.03;8.70;;;3.50;99.90;;;;;;4994510;28;20210;-65
2023/01/25 09:18:46;;;;;;;11.67;8.77;;;3.50;99.90;;;;;;5004956;28;20183;-65
2023/01/25 09:21:15;;;;;;;11.97;8.57;;;3.50;99.90;;;;;;5014695;28;20233;-64
2023/01/25 09:23:44;;;;;;;12.17;9.10;;;3.50;99.90;;;;;;5009832;28;20203;-65
2023/01/25 09:26:10;;;;;;;11.10;8.57;;;3.50;99.90;;;;;;4994197;28;20172;-65
2023/01/25 09:28:36;;;;;;;10.83;8.53;;;3.50;99.90;;;;;;4994148;28;20215;-65
2023/01/25 09:31:04;;;;;;;9.90;8.03;;;3.50;99.90;;;;;;4993814;28;20286;-64
2023/01/25 09:33:35;;;;;;;11.43;8.60;;;3.60;99.90;;;;;;4994011;28;20175;-65
2023/01/25 09:36:02;;;;;;;11.07;8.43;;;4.20;99.90;;;;;;5019235;28;20189;-65
2023/01/25 09:38:27;;;;;;;10.87;8.60;;;3.60;99.90;;;;;;5031832;28;20174;-65
2023/01/25 09:41:41;;;;;;;12.03;9.23;;;3.60;99.90;;;;;;5005556;28;20194;-66
2023/01/25 09:44:34;;;;;;;11.77;8.37;;;3.60;99.90;;;;;;5002051;28;20203;-65
2023/01/25 09:47:44;;;;;;;12.33;8.93;;;3.60;99.90;;;;;;5013465;28;20174;-65
2023/01/25 09:50:21;;;;;;;9.70;8.03;;;3.60;99.90;;;;;;4945106;28;20218;-66
2023/01/25 09:53:11;;;;;;;11.70;8.10;;;3.60;99.90;;;;;;5002585;28;20225;-65
2023/01/25 09:55:38;;;;;;;9.33;7.67;;;3.60;99.90;;;;;;5013686;28;20186;-65
2023/01/25 09:58:08;;;;;;;10.20;8.13;;;3.60;99.90;;;;;;5009463;28;20207;-65
2023/01/25 10:00:44;;;;;;;10.53;8.57;;;3.60;99.90;;;;;;5010123;28;20171;-65
2023/01/25 10:03:22;;;;;;;12.17;8.67;;;3.60;99.90;;;;;;5013195;28;20198;-66
2023/01/25 10:05:53;;;;;;;11.60;8.47;;;3.70;99.90;;;;;;5013542;28;20166;-66
2023/01/25 10:08:31;;;;;;;10.80;8.87;;;3.70;99.90;;;;;;5014580;28;20159;-66
2023/01/25 10:11:22;;;;;;;10.90;8.33;;;3.70;99.90;;;;;;4997027;28;20203;-66
2023/01/25 10:13:48;;;;;;;10.97;8.13;;;3.70;99.90;;;;;;4987912;28;20194;-65
2023/01/25 10:16:40;;;;;;;12.17;8.97;;;3.80;99.90;;;;;;4997302;28;20179;-65
2023/01/25 10:19:14;;;;;;;11.80;8.97;;;3.70;99.90;;;;;;4997077;28;20214;-63
2023/01/25 10:21:47;;;;;;;12.93;9.33;;;3.70;99.90;;;;;;4997069;28;20222;-66
2023/01/25 10:24:32;;;;;;;12.37;9.33;;;3.70;99.90;;;;;;5011853;28;20198;-65
2023/01/25 10:27:09;;;;;;;11.77;9.27;;;3.70;99.90;;;;;;5004304;28;20258;-65
2023/01/25 10:29:40;;;;;;;10.90;9.20;;;3.90;99.90;;;;;;4996867;28;20167;-65
2023/01/25 10:32:12;;;;;;;12.17;8.80;;;3.70;99.90;;;;;;5004248;28;20202;-65
2023/01/25 10:34:47;;;;;;;13.70;9.53;;;3.70;99.90;;;;;;5016383;28;20248;-65
2023/01/25 10:37:34;;;;;;;12.13;8.97;;;4.30;99.90;;;;;;5012009;28;20238;-65
2023/01/25 10:40:20;;;;;;;12.33;9.63;;;3.80;99.90;;;;;;5009339;28;20182;-65
2023/01/25 10:42:53;;;;;;;13.10;9.87;;;3.80;99.90;;;;;;5016101;28;20259;-65
2023/01/25 10:45:19;;;;;;;11.83;9.00;;;3.70;99.90;;;;;;5012869;28;20218;-65
2023/01/25 10:47:53;;;;;;;12.47;9.33;;;3.80;99.90;;;;;;5012682;28;20186;-65
2023/01/25 10:50:50;;;;;;;13.50;9.83;;;3.80;99.90;;;;;;5016090;28;20175;-65
2023/01/25 10:53:35;;;;;;;13.40;9.47;;;3.80;99.90;;;;;;5014655;28;20206;-65
2023/01/25 10:56:10;;;;;;;13.47;9.97;;;3.80;99.90;;;;;;5004354;28;20175;-65
2023/01/25 10:58:40;;;;;;;13.60;9.87;;;3.80;99.90;;;;;;4996231;28;20214;-64
2023/01/25 11:01:30;;;;;;;14.33;10.20;;;3.90;99.90;;;;;;4996250;28;20190;-66
2023/01/25 11:03:56;;;;;;;12.93;9.33;;;3.80;99.90;;;;;;4996119;28;20199;-65
2023/01/25 11:06:37;;;;;;;13.50;9.33;;;3.80;99.90;;;;;;5013365;28;20236;-71
2023/01/25 11:09:34;;;;;;;13.07;9.70;;;3.80;99.90;;;;;;5015547;28;20261;-73
2023/01/25 11:12:21;;;;;;;11.70;9.07;;;3.80;99.90;;;;;;4999242;28;20214;-72
2023/01/25 11:14:49;;;;;;;13.10;9.10;;;3.80;99.90;;;;;;5011810;28;20175;-73
2023/01/25 11:17:21;;;;;;;13.00;9.23;;;3.80;99.90;;;;;;5002550;28;20179;-73
2023/01/25 11:20:02;;;;;;;14.17;9.90;;;3.80;99.90;;;;;;5015431;28;20198;-73
2023/01/25 11:22:28;;;;;;;11.53;8.63;;;3.80;99.90;;;;;;4996027;28;20258;-73
2023/01/25 11:24:54;;;;;;;12.10;8.90;;;3.80;99.90;;;;;;5010220;28;20183;-73
2023/01/25 11:27:25;;;;;;;11.80;8.70;;;3.80;99.90;;;;;;5008932;28;20233;-73
2023/01/25 11:30:19;;;;;;;13.43;9.80;;;3.90;99.90;;;;;;4996088;28;20170;-73
2023/01/25 11:32:48;;;;;;;13.13;9.57;;;3.80;99.90;;;;;;4995997;28;20206;-72
2023/01/25 11:35:33;;;;;;;15.00;11.13;;;3.80;99.90;;;;;;4995832;28;20249;-73
2023/01/25 11:38:15;;;;;;;13.70;10.73;;;3.80;99.90;;;;;;5004294;28;20182;-73
2023/01/25 11:41:00;;;;;;;15.27;11.07;;;3.80;99.90;;;;;;5001963;28;20186;-73
2023/01/25 11:43:59;;;;;;;13.20;10.00;;;3.70;99.90;;;;;;5024821;28;20190;-72
2023/01/25 11:46:46;;;;;;;14.87;10.50;;;3.70;99.90;;;;;;5029058;28;20252;-73
2023/01/25 11:49:36;;;;;;;14.17;10.47;;;3.70;99.90;;;;;;5020757;28;20257;-72
2023/01/25 11:52:39;;;;;;;15.27;9.97;;;3.70;99.90;;;;;;5009834;28;20194;-73
2023/01/25 11:55:10;;;;;;;12.83;9.57;;;3.60;99.90;;;;;;5003486;28;20175;-72
2023/01/25 11:57:44;;;;;;;14.87;10.57;;;3.60;99.90;;;;;;5005072;28;20179;-72
2023/01/25 12:00:37;;;;;;;16.20;11.57;;;3.70;99.90;;;;;;4997775;28;20261;-73
2023/01/25 12:03:24;;;;;;;14.60;10.77;;;3.70;99.90;;;;;;5023284;28;20206;-72
2023/01/25 12:06:20;;;;;;;12.77;9.40;;;3.70;99.90;;;;;;5034774;28;20223;-72
2023/01/25 12:09:36;;;;;;;14.70;9.63;;;3.70;99.90;;;;;;5019251;28;20205;-71
2023/01/25 12:12:40;;;;;;;14.63;10.23;;;3.70;99.90;;;;;;4939139;29;20194;-72
2023/01/25 12:15:41;;;;;;;13.60;9.97;;;3.70;99.90;;;;;;5014825;28;20162;-72
2023/01/25 12:18:43;;;;;;;13.93;9.60;;;3.70;99.90;;;;;;4994619;28;20170;-72
2023/01/25 12:21:41;;;;;;;14.63;9.37;;;3.70;99.90;;;;;;5009312;28;20472;-71
2023/01/25 12:24:25;;;;;;;14.67;10.10;;;3.60;99.90;;;;;;5014633;28;20206;-73
2023/01/25 12:27:16;;;;;;;12.40;8.93;;;3.60;99.90;;;;;;5014443;28;20213;-72
2023/01/25 12:29:44;;;;;;;11.97;8.60;;;3.60;99.90;;;;;;5014582;28;20217;-71
2023/01/25 12:32:27;;;;;;;12.63;8.77;;;3.50;99.90;;;;;;5013826;28;20178;-72
2023/01/25 12:35:21;;;;;;;10.93;8.20;;;3.50;99.90;;;;;;5014138;28;20229;-72
2023/01/25 12:37:55;;;;;;;11.37;7.93;;;3.50;99.90;;;;;;5000383;28;20167;-68
2023/01/25 12:40:38;;;;;;;11.93;8.43;;;3.50;99.90;;;;;;5014330;28;20201;-70
2023/01/25 12:43:16;;;;;;;11.20;7.57;;;3.50;99.90;;;;;;5016126;28;20198;-70
2023/01/25 12:45:45;;;;;;;10.90;8.07;;;3.50;99.90;;;;;;5031721;28;20207;-66
2023/01/25 12:48:13;;;;;;;11.40;8.43;;;3.40;99.90;;;;;;5042095;28;20253;-67
2023/01/25 12:50:48;;;;;;;11.40;8.13;;;3.50;99.90;;;;;;5036304;28;20167;-69
2023/01/25 12:53:22;;;;;;;11.57;8.43;;;3.50;99.90;;;;;;5008816;28;20190;-72
2023/01/25 12:55:51;;;;;;;12.93;8.97;;;3.50;99.90;;;;;;4996818;28;20167;-71
2023/01/25 12:58:40;;;;;;;12.37;8.60;;;3.50;99.90;;;;;;5009108;28;20182;-71
2023/01/25 13:01:21;;;;;;;12.10;8.40;;;3.50;99.90;;;;;;4994777;28;20223;-70
2023/01/25 13:03:55;;;;;;;12.00;8.10;;;3.50;99.90;;;;;;4994090;28;20382;-71
2023/01/25 13:06:33;;;;;;;12.20;8.47;;;3.50;99.90;;;;;;4994326;28;20178;-70
2023/01/25 13:09:35;;;;;;;11.17;7.27;;;3.50;99.90;;;;;;4999583;28;20264;-71
2023/01/25 13:12:04;;;;;;;10.53;7.50;;;3.50;99.90;;;;;;5013734;28;20159;-70
2023/01/25 13:14:40;;;;;;;11.57;7.77;;;3.40;99.90;;;;;;5013866;28;20245;-70